createdAt,value
2023-03-26T00:00:54.073Z,16.29
2023-03-26T00:03:20.507Z,16.27
2023-03-26T00:05:48.201Z,16.23
2023-03-26T00:08:16.630Z,16.21
2023-03-26T00:10:44.214Z,16.18
2023-03-26T00:13:11.523Z,16.15
2023-03-26T00:15:38.443Z,16.12
2023-03-26T00:18:05.671Z,16.07
2023-03-26T00:20:35.342Z,16.04
2023-03-26T00:23:01.997Z,16.02
2023-03-26T00:25:28.483Z,15.98
2023-03-26T00:27:54.956Z,15.96
2023-03-26T00:30:21.545Z,15.90
2023-03-26T00:32:53.599Z,15.86
2023-03-26T00:35:20.859Z,15.80
2023-03-26T00:37:47.812Z,15.78
2023-03-26T00:40:14.406Z,15.75
2023-03-26T00:42:42.543Z,15.70
2023-03-26T00:45:09.148Z,15.68
2023-03-26T00:47:36.143Z,15.68
2023-03-26T00:50:04.322Z,15.64
2023-03-26T00:52:31.632Z,15.60
2023-03-26T00:54:58.169Z,15.58
2023-03-26T00:57:36.034Z,15.55
2023-03-26T01:00:07.259Z,15.54
2023-03-26T01:02:33.822Z,15.52
2023-03-26T01:05:02.990Z,15.52
2023-03-26T01:07:30.061Z,15.50
2023-03-26T01:09:59.697Z,15.49
2023-03-26T01:12:31.839Z,15.48
2023-03-26T01:15:00.770Z,15.47
2023-03-26T01:17:34.272Z,15.46
2023-03-26T01:20:13.439Z,15.46
2023-03-26T01:22:44.433Z,15.44
2023-03-26T01:25:12.041Z,15.44
2023-03-26T01:27:41.003Z,15.45
2023-03-26T01:30:15.143Z,15.44
2023-03-26T01:32:50.471Z,15.44
2023-03-26T01:35:43.039Z,15.43
2023-03-26T01:38:15.525Z,15.44
2023-03-26T01:40:49.543Z,15.43
2023-03-26T01:43:32.435Z,15.42
2023-03-26T01:46:03.636Z,15.42
2023-03-26T01:48:39.780Z,15.42
2023-03-26T01:51:07.495Z,15.42
2023-03-26T01:53:47.233Z,15.41
2023-03-26T01:56:35.564Z,15.40
2023-03-26T01:59:20.302Z,15.39
2023-03-26T02:02:09.799Z,15.40
2023-03-26T02:04:47.008Z,15.39
2023-03-26T02:07:20.873Z,15.39
2023-03-26T02:09:52.724Z,15.39
2023-03-26T02:12:22.745Z,15.39
2023-03-26T02:14:49.594Z,15.40
2023-03-26T02:17:16.808Z,15.39
2023-03-26T02:19:44.912Z,15.40
2023-03-26T02:22:15.860Z,15.42
2023-03-26T02:24:43.578Z,15.43
2023-03-26T02:27:12.207Z,15.45
2023-03-26T02:29:39.798Z,15.46
2023-03-26T02:32:08.955Z,15.48
2023-03-26T02:34:36.760Z,15.48
2023-03-26T02:37:03.245Z,15.50
2023-03-26T02:39:29.803Z,15.51
2023-03-26T02:41:56.369Z,15.51
2023-03-26T02:44:22.854Z,15.52
2023-03-26T02:46:49.334Z,15.51
2023-03-26T02:49:16.263Z,15.53
2023-03-26T02:51:42.797Z,15.53
2023-03-26T02:54:09.825Z,15.53
2023-03-26T02:56:36.558Z,15.55
2023-03-26T02:59:03.273Z,15.55
2023-03-26T03:01:30.958Z,15.55
2023-03-26T03:03:57.686Z,15.56
2023-03-26T03:06:26.377Z,15.56
2023-03-26T03:08:54.040Z,15.57
2023-03-26T03:11:24.966Z,15.56
2023-03-26T03:13:52.875Z,15.58
2023-03-26T03:16:20.153Z,15.58
2023-03-26T03:18:54.243Z,15.58
2023-03-26T03:21:21.237Z,15.57
2023-03-26T03:23:47.765Z,15.59
2023-03-26T03:26:16.803Z,15.59
2023-03-26T03:28:45.093Z,15.59
2023-03-26T03:31:11.645Z,15.60
2023-03-26T03:33:38.205Z,15.61
2023-03-26T03:36:10.438Z,15.61
2023-03-26T03:38:47.649Z,15.61
2023-03-26T03:41:14.255Z,15.62
2023-03-26T03:43:41.235Z,15.61
2023-03-26T03:46:07.839Z,15.62
2023-03-26T03:48:38.169Z,15.64
2023-03-26T03:51:06.098Z,15.63
2023-03-26T03:53:37.269Z,15.63
2023-03-26T03:56:04.787Z,15.64
2023-03-26T03:58:31.344Z,15.62
2023-03-26T04:01:04.249Z,15.63
2023-03-26T04:03:33.922Z,15.63
2023-03-26T04:06:01.046Z,15.64
2023-03-26T04:08:27.624Z,15.64
2023-03-26T04:10:54.107Z,15.64
2023-03-26T04:13:20.674Z,15.63
2023-03-26T04:15:47.318Z,15.63
2023-03-26T04:18:13.902Z,15.64
2023-03-26T04:20:46.698Z,15.64
2023-03-26T04:23:14.889Z,15.64
2023-03-26T04:25:48.482Z,15.63
2023-03-26T04:28:32.497Z,15.64
2023-03-26T04:31:02.001Z,15.64
2023-03-26T04:33:31.508Z,15.63
2023-03-26T04:36:02.588Z,15.63
2023-03-26T04:38:33.612Z,15.60
2023-03-26T04:41:03.269Z,15.56
2023-03-26T04:43:31.229Z,15.55
2023-03-26T04:45:58.123Z,15.55
2023-03-26T04:48:24.732Z,15.57
2023-03-26T04:50:51.358Z,15.61
2023-03-26T04:53:21.350Z,15.64
2023-03-26T04:55:56.227Z,15.66
2023-03-26T04:58:32.792Z,15.69
2023-03-26T05:01:01.267Z,15.74
2023-03-26T05:03:39.190Z,15.77
2023-03-26T05:06:05.917Z,15.81
2023-03-26T05:08:32.469Z,15.87
2023-03-26T05:10:58.998Z,15.94
2023-03-26T05:13:25.560Z,16.01
2023-03-26T05:15:52.635Z,16.07
2023-03-26T05:18:19.171Z,16.13
2023-03-26T05:20:46.393Z,16.19
2023-03-26T05:23:13.076Z,16.26
2023-03-26T05:25:39.544Z,16.31
2023-03-26T05:28:06.252Z,16.38
2023-03-26T05:30:32.793Z,16.46
2023-03-26T05:32:59.355Z,16.51
2023-03-26T05:35:26.260Z,16.58
2023-03-26T05:37:52.860Z,16.65
2023-03-26T05:40:20.173Z,16.71
2023-03-26T05:42:47.335Z,16.77
2023-03-26T05:45:15.450Z,16.82
2023-03-26T05:47:42.210Z,16.88
2023-03-26T05:50:09.945Z,16.95
2023-03-26T05:52:37.049Z,17.02
2023-03-26T05:55:03.830Z,17.09
2023-03-26T05:57:31.179Z,17.21
2023-03-26T05:59:57.957Z,17.34
2023-03-26T06:02:24.561Z,17.50
2023-03-26T06:04:51.214Z,17.64
2023-03-26T06:07:19.829Z,17.80
2023-03-26T06:09:46.707Z,17.94
2023-03-26T06:12:13.763Z,18.07
2023-03-26T06:14:42.679Z,18.19
2023-03-26T06:17:10.388Z,18.30
2023-03-26T06:19:37.498Z,18.41
2023-03-26T06:22:04.925Z,18.51
2023-03-26T06:24:32.762Z,18.60
2023-03-26T06:26:59.265Z,18.68
2023-03-26T06:29:25.998Z,18.74
2023-03-26T06:31:52.497Z,18.79
2023-03-26T06:34:18.969Z,18.85
2023-03-26T06:36:45.571Z,18.89
2023-03-26T06:39:12.015Z,18.93
2023-03-26T06:41:38.511Z,18.96
2023-03-26T06:44:05.045Z,18.97
2023-03-26T06:46:31.962Z,18.98
2023-03-26T06:48:58.536Z,19.00
2023-03-26T06:51:25.305Z,19.00
2023-03-26T06:53:51.814Z,19.00
2023-03-26T06:56:18.260Z,19.02
2023-03-26T06:58:44.750Z,19.00
2023-03-26T07:01:11.366Z,18.99
2023-03-26T07:03:37.871Z,18.98
2023-03-26T07:06:04.596Z,18.97
2023-03-26T07:08:31.566Z,18.96
2023-03-26T07:10:58.207Z,18.94
2023-03-26T07:13:24.757Z,18.93
2023-03-26T07:15:51.262Z,18.92
2023-03-26T07:18:17.790Z,18.90
2023-03-26T07:20:46.443Z,18.90
2023-03-26T07:23:15.583Z,18.91
2023-03-26T07:25:42.362Z,18.92
2023-03-26T07:28:12.313Z,18.92
2023-03-26T07:31:03.495Z,18.92
2023-03-26T07:33:39.129Z,18.92
2023-03-26T07:36:32.868Z,18.92
2023-03-26T07:39:08.549Z,18.90
2023-03-26T07:41:40.993Z,18.89
2023-03-26T07:44:27.638Z,18.89
2023-03-26T07:46:54.584Z,18.90
2023-03-26T07:49:21.528Z,18.90
2023-03-26T07:51:49.110Z,18.89
2023-03-26T07:54:16.161Z,18.88
2023-03-26T07:57:15.099Z,18.88
2023-03-26T07:59:55.574Z,18.86
2023-03-26T08:02:43.455Z,18.82
2023-03-26T08:05:35.508Z,18.80
2023-03-26T08:08:28.487Z,18.77
2023-03-26T08:11:46.045Z,18.73
2023-03-26T08:14:33.427Z,18.67
2023-03-26T08:17:42.766Z,18.60
2023-03-26T08:20:38.124Z,18.54
2023-03-26T08:23:13.836Z,18.53
2023-03-26T08:26:02.585Z,18.51
2023-03-26T08:28:38.561Z,18.48
2023-03-26T08:31:05.731Z,18.44
2023-03-26T08:33:35.947Z,18.40
2023-03-26T08:36:04.129Z,18.34
2023-03-26T08:38:30.619Z,18.27
2023-03-26T08:41:12.407Z,18.22
2023-03-26T08:44:03.509Z,18.16
2023-03-26T08:47:13.524Z,18.10
2023-03-26T08:49:46.073Z,18.03
2023-03-26T08:52:45.763Z,17.98
2023-03-26T08:55:39.303Z,17.94
2023-03-26T08:58:14.729Z,17.93
2023-03-26T09:00:58.050Z,17.88
2023-03-26T09:03:56.127Z,17.86
2023-03-26T09:06:28.769Z,17.85
2023-03-26T09:09:23.019Z,17.83
2023-03-26T09:12:18.846Z,17.82
2023-03-26T09:15:02.346Z,17.82
2023-03-26T09:17:56.662Z,17.82
2023-03-26T09:20:42.753Z,17.82
2023-03-26T09:23:44.610Z,17.84
2023-03-26T09:26:32.711Z,17.85
2023-03-26T09:29:40.607Z,17.88
2023-03-26T09:32:09.650Z,17.86
2023-03-26T09:34:36.333Z,17.88
2023-03-26T09:37:18.760Z,17.90
2023-03-26T09:39:52.139Z,17.90
2023-03-26T09:42:29.278Z,17.91
2023-03-26T09:45:01.161Z,17.93
2023-03-26T09:47:39.590Z,17.97
2023-03-26T09:50:29.748Z,18.02
2023-03-26T09:53:07.053Z,18.06
2023-03-26T09:55:48.854Z,18.02
2023-03-26T09:58:23.591Z,18.04
2023-03-26T10:01:05.462Z,18.03
2023-03-26T10:03:43.868Z,18.02
2023-03-26T10:06:44.457Z,18.04
2023-03-26T10:09:45.743Z,18.04
2023-03-26T10:12:32.135Z,18.06
2023-03-26T10:15:16.648Z,18.06
2023-03-26T10:17:50.217Z,18.11
2023-03-26T10:20:31.307Z,18.13
2023-03-26T10:23:14.503Z,18.13
2023-03-26T10:25:59.364Z,18.15
2023-03-26T10:28:55.653Z,18.15
2023-03-26T10:31:34.362Z,18.16
2023-03-26T10:34:09.496Z,18.15
2023-03-26T10:37:11.558Z,18.16
2023-03-26T10:39:46.021Z,18.17
2023-03-26T10:42:22.514Z,18.16
2023-03-26T10:44:58.442Z,18.18
2023-03-26T10:47:49.535Z,18.18
2023-03-26T10:50:53.804Z,18.21
2023-03-26T10:53:34.705Z,18.23
2023-03-26T10:56:13.895Z,18.21
2023-03-26T10:58:46.094Z,18.20
2023-03-26T11:01:32.336Z,18.26
2023-03-26T11:04:15.454Z,18.29
2023-03-26T11:07:05.055Z,18.33
2023-03-26T11:09:54.946Z,18.35
2023-03-26T11:12:39.942Z,18.39
2023-03-26T11:15:22.658Z,18.45
2023-03-26T11:18:04.081Z,18.48
2023-03-26T11:20:36.787Z,18.50
2023-03-26T11:23:38.935Z,18.55
2023-03-26T11:26:25.871Z,18.61
2023-03-26T11:29:03.989Z,18.65
2023-03-26T11:32:05.967Z,18.68
2023-03-26T11:34:42.056Z,18.68
2023-03-26T11:37:18.621Z,18.61
2023-03-26T11:39:56.841Z,18.56
2023-03-26T11:42:24.929Z,18.53
2023-03-26T11:44:54.326Z,18.52
2023-03-26T11:47:29.694Z,18.52
2023-03-26T11:50:00.613Z,18.49
2023-03-26T11:52:27.504Z,18.44
2023-03-26T11:54:54.119Z,18.40
2023-03-26T11:57:29.991Z,18.37
2023-03-26T12:00:10.786Z,18.38
2023-03-26T12:02:41.416Z,18.41
2023-03-26T12:05:14.695Z,18.40
2023-03-26T12:07:52.678Z,18.38
2023-03-26T12:10:26.077Z,18.36
2023-03-26T12:12:56.262Z,18.33
2023-03-26T12:15:23.176Z,18.30
2023-03-26T12:17:53.572Z,18.28
2023-03-26T12:20:25.971Z,18.25
2023-03-26T12:23:00.831Z,18.24
2023-03-26T12:25:32.726Z,18.19
2023-03-26T12:28:05.477Z,18.20
2023-03-26T12:30:39.538Z,18.16
2023-03-26T12:33:15.119Z,18.13
2023-03-26T12:35:43.643Z,18.12
2023-03-26T12:38:15.888Z,18.07
2023-03-26T12:40:43.802Z,18.03
2023-03-26T12:44:48.896Z,18.00
2023-03-26T12:47:58.312Z,17.97
2023-03-26T12:49:16.213Z,17.96
2023-03-26T12:51:58.835Z,17.95
2023-03-26T12:54:48.330Z,17.94
2023-03-26T12:57:26.648Z,17.92
2023-03-26T13:00:24.191Z,17.92
2023-03-26T13:03:05.680Z,17.93
2023-03-26T13:05:59.629Z,17.95
2023-03-26T13:09:17.895Z,17.96
2023-03-26T13:12:02.751Z,17.97
2023-03-26T13:14:38.306Z,18.00
2023-03-26T13:17:18.700Z,18.06
2023-03-26T13:20:13.228Z,18.09
2023-03-26T13:23:10.537Z,18.13
2023-03-26T13:25:52.172Z,18.11
2023-03-26T13:28:47.369Z,18.12
2023-03-26T13:31:16.819Z,18.13
2023-03-26T13:33:50.040Z,18.16
2023-03-26T13:36:24.218Z,18.17
2023-03-26T13:39:14.796Z,18.16
2023-03-26T13:41:59.452Z,18.15
2023-03-26T13:44:35.194Z,18.18
2023-03-26T13:47:20.180Z,18.23
2023-03-26T13:49:51.886Z,18.27
2023-03-26T13:52:35.349Z,18.29
2023-03-26T13:55:20.225Z,18.32
2023-03-26T13:57:55.337Z,18.33
2023-03-26T14:00:32.538Z,18.36
2023-03-26T14:03:10.705Z,18.37
2023-03-26T14:05:46.156Z,18.35
2023-03-26T14:08:22.600Z,18.38
2023-03-26T14:10:55.704Z,18.35
2023-03-26T14:13:29.615Z,18.34
2023-03-26T14:16:01.133Z,18.35
2023-03-26T14:18:27.661Z,18.35
2023-03-26T14:21:00.281Z,18.35
2023-03-26T14:23:38.842Z,18.33
2023-03-26T14:26:33.241Z,18.34
2023-03-26T14:29:05.720Z,18.35
2023-03-26T14:32:09.733Z,18.38
2023-03-26T14:35:04.786Z,18.38
2023-03-26T14:37:50.812Z,18.37
2023-03-26T14:40:51.527Z,18.35
2023-03-26T14:43:45.982Z,18.35
2023-03-26T14:46:21.145Z,18.41
2023-03-26T14:49:08.670Z,18.41
2023-03-26T14:51:53.558Z,18.40
2023-03-26T14:54:25.984Z,18.42
2023-03-26T14:57:16.032Z,18.42
2023-03-26T14:59:57.183Z,18.41
2023-03-26T15:03:09.158Z,18.41
2023-03-26T15:06:06.537Z,18.40
2023-03-26T15:09:10.513Z,18.39
2023-03-26T15:12:12.808Z,18.40
2023-03-26T15:15:07.092Z,18.40
2023-03-26T15:17:40.459Z,18.40
2023-03-26T15:20:16.012Z,18.42
2023-03-26T15:23:09.611Z,18.46
2023-03-26T15:26:20.920Z,18.55
2023-03-26T15:28:53.348Z,18.58
2023-03-26T15:31:42.501Z,18.62
2023-03-26T15:34:25.825Z,18.63
2023-03-26T15:37:18.278Z,18.61
2023-03-26T15:39:59.326Z,18.61
2023-03-26T15:42:38.299Z,18.58
2023-03-26T15:45:29.532Z,18.53
2023-03-26T15:48:10.530Z,18.49
2023-03-26T15:50:49.612Z,18.47
2023-03-26T15:53:34.871Z,18.44
2023-03-26T15:56:07.221Z,18.44
2023-03-26T15:58:48.555Z,18.40
2023-03-26T16:01:33.955Z,18.39
2023-03-26T16:04:32.662Z,18.38
2023-03-26T16:07:05.532Z,18.35
2023-03-26T16:09:45.543Z,18.34
2023-03-26T16:12:11.916Z,18.32
2023-03-26T16:14:44.685Z,18.30
2023-03-26T16:17:20.678Z,18.31
2023-03-26T16:20:31.335Z,18.30
2023-03-26T16:23:01.566Z,18.31
2023-03-26T16:25:52.633Z,18.32
2023-03-26T16:28:33.792Z,18.31
2023-03-26T16:31:36.603Z,18.30
2023-03-26T16:34:05.180Z,18.29
2023-03-26T16:36:51.682Z,18.28
2023-03-26T16:39:23.069Z,18.26
2023-03-26T16:42:06.087Z,18.27
2023-03-26T16:44:42.162Z,18.26
2023-03-26T16:47:36.721Z,18.24
2023-03-26T16:50:29.933Z,18.24
2023-03-26T16:53:23.291Z,18.23
2023-03-26T16:56:02.578Z,18.17
2023-03-26T16:58:36.769Z,18.13
2023-03-26T17:01:27.225Z,18.12
2023-03-26T17:04:10.012Z,18.07
2023-03-26T17:06:56.466Z,18.00
2023-03-26T17:09:26.197Z,17.88
2023-03-26T17:12:04.687Z,17.76
2023-03-26T17:14:50.826Z,17.70
2023-03-26T17:17:31.424Z,17.62
2023-03-26T17:20:32.775Z,17.54
2023-03-26T17:23:21.080Z,17.52
2023-03-26T17:26:06.001Z,17.46
2023-03-26T17:28:41.770Z,17.41
2023-03-26T17:31:45.903Z,17.36
2023-03-26T17:34:54.573Z,17.33
2023-03-26T17:37:23.967Z,17.32
2023-03-26T17:39:50.426Z,17.31
2023-03-26T17:42:18.639Z,17.29
2023-03-26T17:45:09.994Z,17.29
2023-03-26T17:47:44.019Z,17.28
2023-03-26T17:50:19.416Z,17.29
2023-03-26T17:52:55.090Z,17.30
2023-03-26T17:55:31.271Z,17.28
2023-03-26T17:58:21.065Z,17.29
2023-03-26T18:00:52.707Z,17.30
2023-03-26T18:03:29.541Z,17.31
2023-03-26T18:06:05.690Z,17.33
2023-03-26T18:08:42.023Z,17.34
2023-03-26T18:11:27.289Z,17.34
2023-03-26T18:14:21.638Z,17.35
2023-03-26T18:16:51.544Z,17.37
2023-03-26T18:19:22.158Z,17.37
2023-03-26T18:21:54.695Z,17.38
2023-03-26T18:24:27.551Z,17.39
2023-03-26T18:26:56.068Z,17.41
2023-03-26T18:29:35.285Z,17.41
2023-03-26T18:32:11.477Z,17.39
2023-03-26T18:34:46.029Z,17.41
2023-03-26T18:37:22.983Z,17.42
2023-03-26T18:40:12.515Z,17.42
2023-03-26T18:42:41.152Z,17.44
2023-03-26T18:45:33.157Z,17.44
2023-03-26T18:48:26.122Z,17.45
2023-03-26T18:51:06.020Z,17.45
2023-03-26T18:53:39.446Z,17.46
2023-03-26T18:56:27.738Z,17.46
2023-03-26T18:58:58.133Z,17.44
2023-03-26T19:01:30.691Z,17.44
2023-03-26T19:04:08.288Z,17.44
2023-03-26T19:06:39.946Z,17.42
2023-03-26T19:09:19.676Z,17.36
2023-03-26T19:11:57.145Z,17.34
2023-03-26T19:14:26.058Z,17.29
2023-03-26T19:16:58.271Z,17.28
2023-03-26T19:19:37.341Z,17.23
2023-03-26T19:22:09.277Z,17.19
2023-03-26T19:24:36.217Z,17.13
2023-03-26T19:27:03.999Z,17.09
2023-03-26T19:29:33.946Z,17.04
2023-03-26T19:32:16.003Z,16.99
2023-03-26T19:34:45.580Z,16.90
2023-03-26T19:37:21.519Z,16.86
2023-03-26T19:39:54.121Z,16.81
2023-03-26T19:42:26.632Z,16.77
2023-03-26T19:44:54.336Z,16.70
2023-03-26T19:47:45.495Z,16.65
2023-03-26T19:50:28.902Z,16.57
2023-03-26T19:53:17.838Z,16.51
2023-03-26T19:56:11.687Z,16.46
2023-03-26T19:58:38.161Z,16.39
2023-03-26T20:01:05.623Z,16.37
2023-03-26T20:03:44.026Z,16.32
2023-03-26T20:06:13.333Z,16.27
2023-03-26T20:08:40.658Z,16.22
2023-03-26T20:11:14.987Z,16.20
2023-03-26T20:13:41.444Z,16.15
2023-03-26T20:16:24.069Z,16.09
2023-03-26T20:18:57.212Z,16.06
2023-03-26T20:21:26.619Z,16.01
2023-03-26T20:23:55.697Z,15.99
2023-03-26T20:26:23.732Z,15.95
2023-03-26T20:28:53.516Z,15.93
2023-03-26T20:31:23.635Z,15.88
2023-03-26T20:33:51.987Z,15.86
2023-03-26T20:36:34.173Z,15.81
2023-03-26T20:39:05.631Z,15.78
2023-03-26T20:41:33.776Z,15.76
2023-03-26T20:44:00.588Z,15.78
2023-03-26T20:46:30.672Z,15.85
2023-03-26T20:48:58.043Z,15.89
2023-03-26T20:51:25.108Z,15.93
2023-03-26T20:53:51.617Z,15.98
2023-03-26T20:56:19.808Z,16.01
2023-03-26T20:58:54.805Z,16.07
2023-03-26T21:01:27.854Z,16.11
2023-03-26T21:03:54.673Z,16.15
2023-03-26T21:06:21.126Z,16.19
2023-03-26T21:08:47.786Z,16.21
2023-03-26T21:11:27.281Z,16.26
2023-03-26T21:13:56.776Z,16.29
2023-03-26T21:16:23.630Z,16.32
2023-03-26T21:18:51.658Z,16.35
2023-03-26T21:21:43.647Z,16.39
2023-03-26T21:24:24.764Z,16.44
2023-03-26T21:27:08.479Z,16.48
2023-03-26T21:29:35.163Z,16.51
2023-03-26T21:32:01.981Z,16.55
2023-03-26T21:34:29.141Z,16.59
2023-03-26T21:36:55.904Z,16.65
2023-03-26T21:39:23.186Z,16.72
2023-03-26T21:42:05.377Z,16.84
2023-03-26T21:44:33.562Z,16.99
2023-03-26T21:47:00.318Z,17.14
2023-03-26T21:49:27.249Z,17.30
2023-03-26T21:51:54.104Z,17.47
2023-03-26T21:54:32.475Z,17.62
2023-03-26T21:57:20.553Z,17.78
2023-03-26T22:00:11.524Z,17.96
2023-03-26T22:02:57.917Z,18.10
2023-03-26T22:05:37.878Z,18.22
2023-03-26T22:08:06.209Z,18.30
2023-03-26T22:10:32.713Z,18.37
2023-03-26T22:12:59.511Z,18.42
2023-03-26T22:15:26.822Z,18.45
2023-03-26T22:17:56.630Z,18.44
2023-03-26T22:20:27.919Z,18.45
2023-03-26T22:22:55.156Z,18.45
2023-03-26T22:25:23.218Z,18.43
2023-03-26T22:27:51.012Z,18.41
2023-03-26T22:30:18.817Z,18.37
2023-03-26T22:32:45.679Z,18.34
2023-03-26T22:35:12.998Z,18.29
2023-03-26T22:37:39.899Z,18.27
2023-03-26T22:40:08.728Z,18.24
2023-03-26T22:42:36.329Z,18.18
2023-03-26T22:45:04.051Z,18.14
2023-03-26T22:47:33.602Z,18.07
2023-03-26T22:50:00.598Z,18.05
2023-03-26T22:52:27.304Z,17.99
2023-03-26T22:54:53.743Z,17.92
2023-03-26T22:57:21.930Z,17.87
2023-03-26T22:59:48.454Z,17.79
2023-03-26T23:02:16.656Z,17.73
2023-03-26T23:04:44.047Z,17.65
2023-03-26T23:07:10.966Z,17.58
2023-03-26T23:09:37.582Z,17.50
2023-03-26T23:12:04.731Z,17.40
2023-03-26T23:14:33.780Z,17.34
2023-03-26T23:17:01.426Z,17.29
2023-03-26T23:19:30.104Z,17.24
2023-03-26T23:21:57.563Z,17.18
2023-03-26T23:24:26.459Z,17.10
2023-03-26T23:26:53.242Z,17.04
2023-03-26T23:29:20.003Z,16.99
2023-03-26T23:31:46.735Z,16.90
2023-03-26T23:34:13.608Z,16.84
2023-03-26T23:36:40.840Z,16.78
2023-03-26T23:39:07.339Z,16.72
2023-03-26T23:41:34.436Z,16.66
2023-03-26T23:44:01.547Z,16.61
2023-03-26T23:46:34.611Z,16.53
2023-03-26T23:49:04.808Z,16.48
2023-03-26T23:51:32.730Z,16.41
2023-03-26T23:54:00.483Z,16.34
2023-03-26T23:56:30.028Z,16.29
2023-03-26T23:58:56.721Z,16.23
